sensor_id;sensor_type;location;lat;lon;timestamp;pressure;altitude;pressure_sealevel;temperature;humidity
59487;BME280;45298;54.918;73.504;2023-03-16T00:01:08;100253.38;;;-4.37;86.59
59487;BME280;45298;54.918;73.504;2023-03-16T00:03:38;100281.91;;;-4.25;86.38
59487;BME280;45298;54.918;73.504;2023-03-16T00:06:08;100276.69;;;-4.31;86.17
59487;BME280;45298;54.918;73.504;2023-03-16T00:08:39;100187.69;;;-4.86;86.61
59487;BME280;45298;54.918;73.504;2023-03-16T00:11:10;100292.25;;;-4.28;86.79
59487;BME280;45298;54.918;73.504;2023-03-16T00:13:39;100272.34;;;-4.44;86.53
59487;BME280;45298;54.918;73.504;2023-03-16T00:16:09;100282.72;;;-4.35;86.20
59487;BME280;45298;54.918;73.504;2023-03-16T00:18:44;100273.22;;;-4.45;86.34
59487;BME280;45298;54.918;73.504;2023-03-16T00:21:13;100295.66;;;-4.38;85.98
59487;BME280;45298;54.918;73.504;2023-03-16T00:23:42;100246.38;;;-4.69;85.82
59487;BME280;45298;54.918;73.504;2023-03-16T00:26:11;100322.47;;;-4.30;86.17
59487;BME280;45298;54.918;73.504;2023-03-16T00:28:40;100302.56;;;-4.38;86.00
59487;BME280;45298;54.918;73.504;2023-03-16T00:31:11;100226.47;;;-4.87;85.92
59487;BME280;45298;54.918;73.504;2023-03-16T00:33:41;100319.88;;;-4.34;85.98
59487;BME280;45298;54.918;73.504;2023-03-16T00:36:10;100319.84;;;-4.41;86.09
59487;BME280;45298;54.918;73.504;2023-03-16T00:38:40;100317.22;;;-4.45;85.95
59487;BME280;45298;54.918;73.504;2023-03-16T00:41:13;100344.03;;;-4.34;85.76
59487;BME280;45298;54.918;73.504;2023-03-16T00:43:45;100331.91;;;-4.40;85.75
59487;BME280;45298;54.918;73.504;2023-03-16T00:46:16;100337.97;;;-4.42;85.95
59487;BME280;45298;54.918;73.504;2023-03-16T00:48:46;100337.97;;;-4.42;86.03
59487;BME280;45298;54.918;73.504;2023-03-16T00:51:17;100337.06;;;-4.46;86.12
59487;BME280;45298;54.918;73.504;2023-03-16T00:53:46;100342.25;;;-4.43;85.65
59487;BME280;45298;54.918;73.504;2023-03-16T00:56:18;100369.03;;;-4.39;85.61
59487;BME280;45298;54.918;73.504;2023-03-16T00:58:47;100356.91;;;-4.49;85.63
59487;BME280;45298;54.918;73.504;2023-03-16T01:01:17;100291.16;;;-4.89;85.13
59487;BME280;45298;54.918;73.504;2023-03-16T01:03:47;100364.66;;;-4.54;85.51
59487;BME280;45298;54.918;73.504;2023-03-16T01:06:17;100394.06;;;-4.40;85.65
59487;BME280;45298;54.918;73.504;2023-03-16T01:08:47;100374.13;;;-4.59;85.64
59487;BME280;45298;54.918;73.504;2023-03-16T01:11:18;100378.41;;;-4.61;85.13
59487;BME280;45298;54.918;73.504;2023-03-16T01:13:49;100386.19;;;-4.63;85.10
59487;BME280;45298;54.918;73.504;2023-03-16T01:16:21;100394.78;;;-4.67;85.35
59487;BME280;45298;54.918;73.504;2023-03-16T01:18:53;100381.81;;;-4.72;85.12
59487;BME280;45298;54.918;73.504;2023-03-16T01:21:22;100378.34;;;-4.75;85.66
59487;BME280;45298;54.918;73.504;2023-03-16T01:23:51;100402.56;;;-4.67;85.16
59487;BME280;45298;54.918;73.504;2023-03-16T01:26:21;100341.03;;;-5.10;84.70
59487;BME280;45298;54.918;73.504;2023-03-16T01:28:52;100437.13;;;-4.56;84.89
59487;BME280;45298;54.918;73.504;2023-03-16T01:31:22;100424.09;;;-4.70;85.24
59487;BME280;45298;54.918;73.504;2023-03-16T01:33:54;100425.81;;;-4.70;84.41
59487;BME280;45298;54.918;73.504;2023-03-16T01:36:26;100419.75;;;-4.77;84.04
59487;BME280;45298;54.918;73.504;2023-03-16T01:39:03;100455.22;;;-4.59;84.12
59487;BME280;45298;54.918;73.504;2023-03-16T01:41:37;100431.81;;;-4.74;84.35
59487;BME280;45298;54.918;73.504;2023-03-16T01:44:16;100460.41;;;-4.62;84.04
59487;BME280;45298;54.918;73.504;2023-03-16T01:46:45;100449.97;;;-4.73;83.97
59487;BME280;45298;54.918;73.504;2023-03-16T01:49:26;100481.16;;;-4.52;83.70
59487;BME280;45298;54.918;73.504;2023-03-16T01:52:02;100475.06;;;-4.62;84.26
59487;BME280;45298;54.918;73.504;2023-03-16T01:54:39;100297.41;;;-5.81;84.30
59487;BME280;45298;54.918;73.504;2023-03-16T01:57:20;100489.81;;;-4.49;84.16
59487;BME280;45298;54.918;73.504;2023-03-16T02:00:07;100482.81;;;-4.61;84.32
59487;BME280;45298;54.918;73.504;2023-03-16T02:03:17;100506.25;;;-4.45;84.49
59487;BME280;45298;54.918;73.504;2023-03-16T02:06:00;100504.50;;;-4.49;84.05
59487;BME280;45298;54.918;73.504;2023-03-16T02:08:32;100513.09;;;-4.50;84.24
59487;BME280;45298;54.918;73.504;2023-03-16T02:11:03;100492.34;;;-4.57;83.68
59487;BME280;45298;54.918;73.504;2023-03-16T02:13:41;100516.56;;;-4.47;83.79
59487;BME280;45298;54.918;73.504;2023-03-16T02:16:12;100536.50;;;-4.40;83.55
59487;BME280;45298;54.918;73.504;2023-03-16T02:18:49;100516.56;;;-4.51;83.41
59487;BME280;45298;54.918;73.504;2023-03-16T02:23:53;100538.19;;;-4.40;83.83
59487;BME280;45298;54.918;73.504;2023-03-16T02:26:45;100548.63;;;-4.32;83.29
59487;BME280;45298;54.918;73.504;2023-03-16T02:29:59;100558.97;;;-4.34;83.53
59487;BME280;45298;54.918;73.504;2023-03-16T02:32:38;100536.44;;;-4.47;83.32
59487;BME280;45298;54.918;73.504;2023-03-16T02:35:09;100528.59;;;-4.57;83.29
59487;BME280;45298;54.918;73.504;2023-03-16T02:37:39;100499.09;;;-4.79;83.38
59487;BME280;45298;54.918;73.504;2023-03-16T02:43:14;100566.69;;;-4.43;82.97
59487;BME280;45298;54.918;73.504;2023-03-16T02:45:55;100532.84;;;-4.63;82.44
59487;BME280;45298;54.918;73.504;2023-03-16T02:48:35;100572.69;;;-4.47;82.82
59487;BME280;45298;54.918;73.504;2023-03-16T02:51:05;100561.38;;;-4.57;82.78
59487;BME280;45298;54.918;73.504;2023-03-16T02:53:34;100586.53;;;-4.39;83.33
59487;BME280;45298;54.918;73.504;2023-03-16T02:56:03;100576.97;;;-4.48;82.85
59487;BME280;45298;54.918;73.504;2023-03-16T02:58:35;100566.59;;;-4.51;82.62
59487;BME280;45298;54.918;73.504;2023-03-16T03:01:09;100592.63;;;-4.34;83.09
59487;BME280;45298;54.918;73.504;2023-03-16T03:03:39;100593.53;;;-4.32;83.16
59487;BME280;45298;54.918;73.504;2023-03-16T03:06:07;100574.44;;;-4.40;83.19
59487;BME280;45298;54.918;73.504;2023-03-16T03:08:37;100559.72;;;-4.50;82.61
59487;BME280;45298;54.918;73.504;2023-03-16T03:11:05;100551.00;;;-4.60;82.69
59487;BME280;45298;54.918;73.504;2023-03-16T03:13:35;100513.72;;;-4.82;82.45
59487;BME280;45298;54.918;73.504;2023-03-16T03:16:12;100601.31;;;-4.29;82.31
59487;BME280;45298;54.918;73.504;2023-03-16T03:18:42;100571.84;;;-4.46;82.52
59487;BME280;45298;54.918;73.504;2023-03-16T03:21:11;100581.38;;;-4.42;82.29
59487;BME280;45298;54.918;73.504;2023-03-16T03:23:42;100538.00;;;-4.68;81.66
59487;BME280;45298;54.918;73.504;2023-03-16T03:26:14;100584.00;;;-4.33;81.98
59487;BME280;45298;54.918;73.504;2023-03-16T03:28:44;100617.84;;;-4.11;81.74
59487;BME280;45298;54.918;73.504;2023-03-16T03:31:15;100608.34;;;-4.11;81.92
59487;BME280;45298;54.918;73.504;2023-03-16T03:33:45;100622.25;;;-3.99;81.66
59487;BME280;45298;54.918;73.504;2023-03-16T03:36:14;100603.16;;;-4.12;81.32
59487;BME280;45298;54.918;73.504;2023-03-16T03:38:44;100616.97;;;-4.15;81.43
59487;BME280;45298;54.918;73.504;2023-03-16T03:41:13;100610.91;;;-4.17;81.19
59487;BME280;45298;54.918;73.504;2023-03-16T03:43:43;100616.91;;;-4.22;81.24
59487;BME280;45298;54.918;73.504;2023-03-16T03:46:15;100622.97;;;-4.19;81.44
59487;BME280;45298;54.918;73.504;2023-03-16T03:48:45;100599.47;;;-4.44;80.97
59487;BME280;45298;54.918;73.504;2023-03-16T03:51:14;100619.34;;;-4.40;80.79
59487;BME280;45298;54.918;73.504;2023-03-16T03:53:55;100629.81;;;-4.29;80.61
59487;BME280;45298;54.918;73.504;2023-03-16T03:56:43;100649.75;;;-4.15;80.75
59487;BME280;45298;54.918;73.504;2023-03-16T03:59:15;100634.16;;;-4.25;80.25
59487;BME280;45298;54.918;73.504;2023-03-16T04:02:04;100623.72;;;-4.35;80.09
59487;BME280;45298;54.918;73.504;2023-03-16T04:04:43;100678.38;;;-4.03;80.08
59487;BME280;45298;54.918;73.504;2023-03-16T04:07:13;100659.25;;;-4.17;79.87
59487;BME280;45298;54.918;73.504;2023-03-16T04:09:43;100653.16;;;-4.24;79.87
59487;BME280;45298;54.918;73.504;2023-03-16T04:12:25;100660.03;;;-4.28;79.43
59487;BME280;45298;54.918;73.504;2023-03-16T04:14:53;100604.41;;;-4.70;79.40
59487;BME280;45298;54.918;73.504;2023-03-16T04:17:24;100680.03;;;-4.11;79.67
59487;BME280;45298;54.918;73.504;2023-03-16T04:19:56;100675.72;;;-4.12;78.90
59487;BME280;45298;54.918;73.504;2023-03-16T04:22:25;100674.00;;;-4.10;78.74
59487;BME280;45298;54.918;73.504;2023-03-16T04:24:54;100668.78;;;-4.13;78.56
59487;BME280;45298;54.918;73.504;2023-03-16T04:27:26;100685.38;;;-3.92;78.59
59487;BME280;45298;54.918;73.504;2023-03-16T04:29:55;100677.59;;;-3.91;78.08
59487;BME280;45298;54.918;73.504;2023-03-16T04:32:27;100695.81;;;-3.82;78.21
59487;BME280;45298;54.918;73.504;2023-03-16T04:34:57;100708.84;;;-3.69;77.94
59487;BME280;45298;54.918;73.504;2023-03-16T04:37:37;100681.13;;;-3.81;77.95
59487;BME280;45298;54.918;73.504;2023-03-16T04:40:07;100694.13;;;-3.75;77.21
59487;BME280;45298;54.918;73.504;2023-03-16T04:42:53;100709.75;;;-3.69;77.09
59487;BME280;45298;54.918;73.504;2023-03-16T04:45:22;100724.56;;;-3.49;76.85
59487;BME280;45298;54.918;73.504;2023-03-16T04:47:54;100701.13;;;-3.61;76.57
59487;BME280;45298;54.918;73.504;2023-03-16T04:50:23;100707.25;;;-3.49;76.24
59487;BME280;45298;54.918;73.504;2023-03-16T04:52:54;100689.13;;;-3.50;76.29
59487;BME280;45298;54.918;73.504;2023-03-16T04:55:23;100684.81;;;-3.42;75.79
59487;BME280;45298;54.918;73.504;2023-03-16T04:57:52;100689.28;;;-3.19;76.05
59487;BME280;45298;54.918;73.504;2023-03-16T05:00:22;100671.09;;;-3.24;75.46
59487;BME280;45298;54.918;73.504;2023-03-16T05:03:09;100586.16;;;-3.68;75.26
59487;BME280;45298;54.918;73.504;2023-03-16T05:05:38;100688.53;;;-2.93;75.61
59487;BME280;45298;54.918;73.504;2023-03-16T05:08:08;100694.53;;;-3.10;75.19
59487;BME280;45298;54.918;73.504;2023-03-16T05:10:41;100720.50;;;-3.02;75.56
59487;BME280;45298;54.918;73.504;2023-03-16T05:13:10;100693.63;;;-3.16;75.13
59487;BME280;45298;54.918;73.504;2023-03-16T05:15:39;100700.53;;;-3.14;74.83
59487;BME280;45298;54.918;73.504;2023-03-16T05:18:21;100724.00;;;-2.95;74.83
59487;BME280;45298;54.918;73.504;2023-03-16T05:20:52;100697.09;;;-3.08;74.85
59487;BME280;45298;54.918;73.504;2023-03-16T05:23:23;100691.09;;;-3.06;74.63
59487;BME280;45298;54.918;73.504;2023-03-16T05:25:57;100680.72;;;-2.99;75.01
59487;BME280;45298;54.918;73.504;2023-03-16T05:28:32;100693.78;;;-2.76;74.44
59487;BME280;45298;54.918;73.504;2023-03-16T05:31:05;100701.59;;;-2.71;73.89
59487;BME280;45298;54.918;73.504;2023-03-16T05:33:38;100723.28;;;-2.41;73.56
59487;BME280;45298;54.918;73.504;2023-03-16T05:36:10;100647.00;;;-2.85;74.14
59487;BME280;45298;54.918;73.504;2023-03-16T05:38:45;100734.53;;;-2.52;73.97
59487;BME280;45298;54.918;73.504;2023-03-16T05:41:41;100707.69;;;-2.51;73.71
59487;BME280;45298;54.918;73.504;2023-03-16T05:44:21;100739.81;;;-2.22;73.31
59487;BME280;45298;54.918;73.504;2023-03-16T05:47:00;100734.59;;;-2.29;72.73
59487;BME280;45298;54.918;73.504;2023-03-16T05:49:32;100734.59;;;-2.25;73.37
59487;BME280;45298;54.918;73.504;2023-03-16T05:52:04;100718.09;;;-2.43;72.82
59487;BME280;45298;54.918;73.504;2023-03-16T05:54:34;100660.06;;;-2.61;73.07
59487;BME280;45298;54.918;73.504;2023-03-16T05:57:03;100729.41;;;-2.21;72.83
59487;BME280;45298;54.918;73.504;2023-03-16T05:59:35;100742.38;;;-2.24;73.00
59487;BME280;45298;54.918;73.504;2023-03-16T06:02:04;100738.91;;;-2.23;72.82
59487;BME280;45298;54.918;73.504;2023-03-16T06:04:35;100748.47;;;-2.13;72.15
59487;BME280;45298;54.918;73.504;2023-03-16T06:07:04;100743.25;;;-2.22;72.20
59487;BME280;45298;54.918;73.504;2023-03-16T06:09:34;100757.16;;;-2.01;72.77
59487;BME280;45298;54.918;73.504;2023-03-16T06:12:09;100747.63;;;-1.77;72.55
59487;BME280;45298;54.918;73.504;2023-03-16T06:14:38;100680.03;;;-2.16;71.37
59487;BME280;45298;54.918;73.504;2023-03-16T06:17:09;100754.59;;;-1.59;71.27
59487;BME280;45298;54.918;73.504;2023-03-16T06:19:39;100758.00;;;-1.29;70.59
59487;BME280;45298;54.918;73.504;2023-03-16T06:22:09;100774.41;;;-0.92;70.52
59487;BME280;45298;54.918;73.504;2023-03-16T06:24:38;100745.84;;;-1.19;69.85
59487;BME280;45298;54.918;73.504;2023-03-16T06:27:07;100751.06;;;-1.18;70.09
59487;BME280;45298;54.918;73.504;2023-03-16T06:29:50;100774.47;;;-1.19;70.28
59487;BME280;45298;54.918;73.504;2023-03-16T06:32:18;100754.53;;;-1.19;69.65
59487;BME280;45298;54.918;73.504;2023-03-16T06:34:50;100754.53;;;-1.25;69.82
59487;BME280;45298;54.918;73.504;2023-03-16T06:37:20;100771.84;;;-1.07;69.39
59487;BME280;45298;54.918;73.504;2023-03-16T06:39:49;100684.34;;;-1.73;69.23
59487;BME280;45298;54.918;73.504;2023-03-16T06:42:17;100774.50;;;-1.41;69.45
59487;BME280;45298;54.918;73.504;2023-03-16T06:44:46;100744.16;;;-1.72;69.49
59487;BME280;45298;54.918;73.504;2023-03-16T06:47:16;100774.50;;;-1.44;69.89
59487;BME280;45298;54.918;73.504;2023-03-16T06:49:44;100706.88;;;-1.74;69.31
59487;BME280;45298;54.918;73.504;2023-03-16T06:52:19;100771.88;;;-1.16;69.24
59487;BME280;45298;54.918;73.504;2023-03-16T06:54:48;100794.38;;;-0.89;69.25
59487;BME280;45298;54.918;73.504;2023-03-16T06:57:19;100784.88;;;-1.05;69.57
59487;BME280;45298;54.918;73.504;2023-03-16T06:59:49;100769.31;;;-1.32;69.53
59487;BME280;45298;54.918;73.504;2023-03-16T07:02:18;100807.41;;;-0.97;69.72
59487;BME280;45298;54.918;73.504;2023-03-16T07:04:47;100799.59;;;-1.06;68.59
59487;BME280;45298;54.918;73.504;2023-03-16T07:07:17;100777.06;;;-1.23;68.75
59487;BME280;45298;54.918;73.504;2023-03-16T07:09:46;100774.50;;;-1.29;69.02
59487;BME280;45298;54.918;73.504;2023-03-16T07:12:15;100767.59;;;-1.38;68.40
59487;BME280;45298;54.918;73.504;2023-03-16T07:14:44;100817.81;;;-0.97;68.54
59487;BME280;45298;54.918;73.504;2023-03-16T07:17:20;100803.91;;;-0.86;68.20
59487;BME280;45298;54.918;73.504;2023-03-16T07:19:49;100788.22;;;-0.60;67.80
59487;BME280;45298;54.918;73.504;2023-03-16T07:22:18;100790.63;;;-0.23;67.20
59487;BME280;45298;54.918;73.504;2023-03-16T07:24:47;100798.34;;;-0.06;67.12
59487;BME280;45298;54.918;73.504;2023-03-16T07:27:24;100798.41;;;-0.13;65.84
59487;BME280;45298;54.918;73.504;2023-03-16T07:29:53;100812.34;;;-0.25;66.60
59487;BME280;45298;54.918;73.504;2023-03-16T07:32:22;100808.97;;;-0.43;66.57
59487;BME280;45298;54.918;73.504;2023-03-16T07:34:54;100825.44;;;-0.32;65.97
59487;BME280;45298;54.918;73.504;2023-03-16T07:37:29;100841.97;;;-0.36;66.31
59487;BME280;45298;54.918;73.504;2023-03-16T07:40:00;100749.25;;;-0.96;66.12
59487;BME280;45298;54.918;73.504;2023-03-16T07:42:29;100826.41;;;-0.67;66.48
59487;BME280;45298;54.918;73.504;2023-03-16T07:45:13;100829.09;;;-0.81;66.32
59487;BME280;45298;54.918;73.504;2023-03-16T07:47:46;100822.19;;;-1.00;66.86
59487;BME280;45298;54.918;73.504;2023-03-16T07:50:34;100832.56;;;-0.82;66.49
59487;BME280;45298;54.918;73.504;2023-03-16T07:53:03;100773.63;;;-1.23;65.84
59487;BME280;45298;54.918;73.504;2023-03-16T07:55:36;100849.09;;;-1.09;66.96
59487;BME280;45298;54.918;73.504;2023-03-16T07:58:08;100823.94;;;-1.16;66.40
59487;BME280;45298;54.918;73.504;2023-03-16T08:00:40;100850.81;;;-0.85;66.71
59487;BME280;45298;54.918;73.504;2023-03-16T08:03:09;100815.25;;;-1.01;66.23
59487;BME280;45298;54.918;73.504;2023-03-16T08:05:39;100828.19;;;-0.78;66.41
59487;BME280;45298;54.918;73.504;2023-03-16T08:08:13;100829.91;;;-0.63;65.67
59487;BME280;45298;54.918;73.504;2023-03-16T08:10:50;100855.09;;;-0.68;65.57
59487;BME280;45298;54.918;73.504;2023-03-16T08:13:28;100836.88;;;-0.73;66.45
59487;BME280;45298;54.918;73.504;2023-03-16T08:15:57;100826.38;;;-0.47;65.62
59487;BME280;45298;54.918;73.504;2023-03-16T08:18:34;100851.44;;;-0.18;65.42
59487;BME280;45298;54.918;73.504;2023-03-16T08:21:05;100859.28;;;-0.19;64.63
59487;BME280;45298;54.918;73.504;2023-03-16T08:23:33;100848.06;;;-0.43;65.72
59487;BME280;45298;54.918;73.504;2023-03-16T08:26:04;100841.97;;;-0.39;65.20
59487;BME280;45298;54.918;73.504;2023-03-16T08:28:37;100847.09;;;-0.20;64.98
59487;BME280;45298;54.918;73.504;2023-03-16T08:31:09;100878.22;;;0.11;64.66
59487;BME280;45298;54.918;73.504;2023-03-16T08:33:45;100865.06;;;0.29;64.47
59487;BME280;45298;54.918;73.504;2023-03-16T08:36:20;100841.63;;;0.25;64.23
59487;BME280;45298;54.918;73.504;2023-03-16T08:38:52;100845.09;;;0.28;64.26
59487;BME280;45298;54.918;73.504;2023-03-16T08:41:42;100861.63;;;0.27;64.17
59487;BME280;45298;54.918;73.504;2023-03-16T08:44:23;100875.59;;;0.17;64.00
59487;BME280;45298;54.918;73.504;2023-03-16T08:46:53;100854.91;;;-0.16;64.10
59487;BME280;45298;54.918;73.504;2023-03-16T08:49:23;100871.44;;;-0.24;64.48
59487;BME280;45298;54.918;73.504;2023-03-16T08:52:00;100884.59;;;-0.54;65.08
59487;BME280;45298;54.918;73.504;2023-03-16T08:54:29;100866.41;;;-0.74;65.08
59487;BME280;45298;54.918;73.504;2023-03-16T08:56:59;100897.63;;;-0.52;65.61
59487;BME280;45298;54.918;73.504;2023-03-16T08:59:31;100897.56;;;-0.34;65.14
59487;BME280;45298;54.918;73.504;2023-03-16T09:02:00;100885.41;;;-0.38;65.08
59487;BME280;45298;54.918;73.504;2023-03-16T09:04:31;100879.41;;;-0.68;65.04
59487;BME280;45298;54.918;73.504;2023-03-16T09:07:00;100917.63;;;-0.78;65.55
59487;BME280;45298;54.918;73.504;2023-03-16T09:09:36;100884.66;;;-1.13;65.97
59487;BME280;45298;54.918;73.504;2023-03-16T09:12:06;100915.06;;;-1.02;66.11
59487;BME280;45298;54.918;73.504;2023-03-16T09:14:36;100915.91;;;-0.97;65.75
59487;BME280;45298;54.918;73.504;2023-03-16T09:17:06;100921.13;;;-0.91;65.86
59487;BME280;45298;54.918;73.504;2023-03-16T09:19:35;100885.53;;;-1.18;66.36
59487;BME280;45298;54.918;73.504;2023-03-16T09:22:24;100910.69;;;-1.20;66.13
59487;BME280;45298;54.918;73.504;2023-03-16T09:24:53;100908.09;;;-1.39;66.34
59487;BME280;45298;54.918;73.504;2023-03-16T09:27:22;100919.38;;;-1.39;67.23
59487;BME280;45298;54.918;73.504;2023-03-16T09:29:51;100870.75;;;-1.77;66.94
59487;BME280;45298;54.918;73.504;2023-03-16T09:32:23;100915.84;;;-1.56;67.90
59487;BME280;45298;54.918;73.504;2023-03-16T09:34:52;100887.22;;;-1.76;67.55
59487;BME280;45298;54.918;73.504;2023-03-16T09:37:21;100893.28;;;-1.77;67.62
59487;BME280;45298;54.918;73.504;2023-03-16T09:39:51;100889.84;;;-1.65;67.74
59487;BME280;45298;54.918;73.504;2023-03-16T09:42:36;100910.69;;;-1.59;67.72
59487;BME280;45298;54.918;73.504;2023-03-16T09:45:08;100932.38;;;-1.37;67.49
59487;BME280;45298;54.918;73.504;2023-03-16T09:47:45;100933.25;;;-1.37;66.98
59487;BME280;45298;54.918;73.504;2023-03-16T09:50:22;100915.03;;;-1.38;67.28
59487;BME280;45298;54.918;73.504;2023-03-16T09:53:24;100933.28;;;-1.29;66.66
59487;BME280;45298;54.918;73.504;2023-03-16T09:56:11;100931.53;;;-1.31;67.29
59487;BME280;45298;54.918;73.504;2023-03-16T09:58:43;100937.59;;;-1.37;67.50
59487;BME280;45298;54.918;73.504;2023-03-16T10:01:39;100947.16;;;-1.28;67.46
59487;BME280;45298;54.918;73.504;2023-03-16T10:04:37;100946.28;;;-1.24;67.74
59487;BME280;45298;54.918;73.504;2023-03-16T10:10:33;100921.13;;;-1.20;67.34
59487;BME280;45298;54.918;73.504;2023-03-16T10:15:52;100928.94;;;-1.17;67.12
59487;BME280;45298;54.918;73.504;2023-03-16T10:18:28;100946.28;;;-1.16;67.42
59487;BME280;45298;54.918;73.504;2023-03-16T10:21:00;100923.69;;;-1.55;67.27
59487;BME280;45298;54.918;73.504;2023-03-16T10:23:31;100947.94;;;-1.68;67.89
59487;BME280;45298;54.918;73.504;2023-03-16T10:26:12;100949.66;;;-1.73;67.96
59487;BME280;45298;54.918;73.504;2023-03-16T10:28:42;100959.22;;;-1.55;67.91
59487;BME280;45298;54.918;73.504;2023-03-16T10:31:14;100935.81;;;-1.69;67.98
59487;BME280;45298;54.918;73.504;2023-03-16T10:33:44;100945.31;;;-1.73;68.05
59487;BME280;45298;54.918;73.504;2023-03-16T10:36:23;100940.09;;;-1.73;68.46
59487;BME280;45298;54.918;73.504;2023-03-16T10:38:57;100945.34;;;-1.59;68.35
59487;BME280;45298;54.918;73.504;2023-03-16T10:41:31;100963.59;;;-1.45;68.45
59487;BME280;45298;54.918;73.504;2023-03-16T10:44:25;100973.09;;;-1.56;68.66
59487;BME280;45298;54.918;73.504;2023-03-16T10:47:05;100972.22;;;-1.69;68.59
59487;BME280;45298;54.918;73.504;2023-03-16T10:49:39;100970.50;;;-1.61;68.48
59487;BME280;45298;54.918;73.504;2023-03-16T10:54:59;100971.31;;;-1.77;69.32
59487;BME280;45298;54.918;73.504;2023-03-16T10:57:32;100987.81;;;-1.69;69.33
59487;BME280;45298;54.918;73.504;2023-03-16T11:02:40;100984.44;;;-1.42;69.63
59487;BME280;45298;54.918;73.504;2023-03-16T11:05:26;100987.03;;;-1.35;69.53
59487;BME280;45298;54.918;73.504;2023-03-16T11:08:11;101000.06;;;-1.37;69.33
59487;BME280;45298;54.918;73.504;2023-03-16T11:10:52;100914.91;;;-1.94;69.21
59487;BME280;45298;54.918;73.504;2023-03-16T11:13:34;101008.69;;;-1.49;69.27
59487;BME280;45298;54.918;73.504;2023-03-16T11:19:53;100999.94;;;-1.65;68.92
59487;BME280;45298;54.918;73.504;2023-03-16T11:22:26;101001.63;;;-1.79;69.92
59487;BME280;45298;54.918;73.504;2023-03-16T11:31:12;101016.34;;;-1.91;70.51
59487;BME280;45298;54.918;73.504;2023-03-16T11:33:31;101011.09;;;-1.95;70.48
59487;BME280;45298;54.918;73.504;2023-03-16T11:39:32;101005.91;;;-1.99;70.00
59487;BME280;45298;54.918;73.504;2023-03-16T11:44:56;101038.78;;;-2.07;70.56
59487;BME280;45298;54.918;73.504;2023-03-16T11:58:51;101032.56;;;-2.29;71.35
59487;BME280;45298;54.918;73.504;2023-03-16T12:01:42;101001.25;;;-2.51;71.83
59487;BME280;45298;54.918;73.504;2023-03-16T12:10:22;101036.88;;;-2.34;71.88
59487;BME280;45298;54.918;73.504;2023-03-16T12:15:45;101043.78;;;-2.35;72.52
59487;BME280;45298;54.918;73.504;2023-03-16T12:18:36;101009.78;;;-2.64;72.27
59487;BME280;45298;54.918;73.504;2023-03-16T12:21:16;101056.66;;;-2.52;72.77
59487;BME280;45298;54.918;73.504;2023-03-16T12:23:52;101054.06;;;-2.52;72.39
59487;BME280;45298;54.918;73.504;2023-03-16T12:26:25;101056.53;;;-2.64;72.49
59487;BME280;45298;54.918;73.504;2023-03-16T12:28:57;101056.38;;;-2.83;72.60
59487;BME280;45298;54.918;73.504;2023-03-16T12:32:11;101035.47;;;-2.98;73.21
59487;BME280;45298;54.918;73.504;2023-03-16T12:35:02;101038.88;;;-3.06;72.66
59487;BME280;45298;54.918;73.504;2023-03-16T12:37:41;101060.56;;;-2.97;72.52
59487;BME280;45298;54.918;73.504;2023-03-16T12:46:12;101023.25;;;-3.09;73.12
59487;BME280;45298;54.918;73.504;2023-03-16T12:48:48;101031.97;;;-3.00;73.70
59487;BME280;45298;54.918;73.504;2023-03-16T12:51:17;101038.13;;;-2.92;73.21
59487;BME280;45298;54.918;73.504;2023-03-16T12:56:26;101035.53;;;-2.92;73.36
59487;BME280;45298;54.918;73.504;2023-03-16T12:59:02;101025.88;;;-3.03;72.92
59487;BME280;45298;54.918;73.504;2023-03-16T13:01:40;101038.09;;;-2.94;73.83
59487;BME280;45298;54.918;73.504;2023-03-16T13:04:20;101044.19;;;-2.90;73.96
59487;BME280;45298;54.918;73.504;2023-03-16T13:09:48;101039.72;;;-3.05;74.16
59487;BME280;45298;54.918;73.504;2023-03-16T13:12:27;101031.78;;;-3.19;73.59
59487;BME280;45298;54.918;73.504;2023-03-16T13:14:59;101023.91;;;-3.28;74.14
59487;BME280;45298;54.918;73.504;2023-03-16T13:17:31;101063.03;;;-3.08;74.04
59487;BME280;45298;54.918;73.504;2023-03-16T13:20:03;101043.03;;;-3.20;74.21
59487;BME280;45298;54.918;73.504;2023-03-16T13:22:44;101022.13;;;-3.32;74.12
59487;BME280;45298;54.918;73.504;2023-03-16T13:25:21;101076.09;;;-3.00;74.51
59487;BME280;45298;54.918;73.504;2023-03-16T13:27:54;101080.44;;;-2.99;74.34
59487;BME280;45298;54.918;73.504;2023-03-16T13:30:45;101087.38;;;-2.98;74.65
59487;BME280;45298;54.918;73.504;2023-03-16T13:33:26;101054.31;;;-3.15;74.42
59487;BME280;45298;54.918;73.504;2023-03-16T13:35:57;101068.22;;;-3.10;74.28
59487;BME280;45298;54.918;73.504;2023-03-16T13:38:27;101052.50;;;-3.25;74.60
59487;BME280;45298;54.918;73.504;2023-03-16T13:41:02;101045.50;;;-3.32;74.41
59487;BME280;45298;54.918;73.504;2023-03-16T13:43:31;101061.13;;;-3.25;74.18
59487;BME280;45298;54.918;73.504;2023-03-16T13:46:16;101085.38;;;-3.21;74.29
59487;BME280;45298;54.918;73.504;2023-03-16T13:48:47;101087.09;;;-3.26;74.12
59487;BME280;45298;54.918;73.504;2023-03-16T13:51:19;101101.94;;;-3.11;74.88
59487;BME280;45298;54.918;73.504;2023-03-16T13:53:48;101078.38;;;-3.31;74.43
59487;BME280;45298;54.918;73.504;2023-03-16T13:56:22;101091.44;;;-3.24;74.59
59487;BME280;45298;54.918;73.504;2023-03-16T13:58:56;101117.59;;;-3.07;74.95
59487;BME280;45298;54.918;73.504;2023-03-16T14:01:29;101122.78;;;-3.04;75.02
59487;BME280;45298;54.918;73.504;2023-03-16T14:04:02;101105.38;;;-3.12;74.91
59487;BME280;45298;54.918;73.504;2023-03-16T14:06:35;101108.88;;;-3.12;74.61
59487;BME280;45298;54.918;73.504;2023-03-16T14:09:14;101120.19;;;-3.07;74.83
59487;BME280;45298;54.918;73.504;2023-03-16T14:11:45;101105.38;;;-3.15;74.77
59487;BME280;45298;54.918;73.504;2023-03-16T14:14:23;101100.94;;;-3.24;74.65
59487;BME280;45298;54.918;73.504;2023-03-16T14:16:59;101099.13;;;-3.31;74.42
59487;BME280;45298;54.918;73.504;2023-03-16T14:19:33;101128.66;;;-3.22;74.59